Date,TemperatureHighF,TemperatureAvgF,TemperatureLowF,DewpointHighF,DewpointAvgF,DewpointLowF,HumidityHigh,HumidityAvg,HumidityLow,PressureMaxIn,PressureMinIn,WindSpeedMaxMPH,WindSpeedAvgMPH,GustSpeedMaxMPH,PrecipitationSumIn
2013-1-1,33.0,31.3,30.0,-99.9,-99.9,-99.9,0,0,100,0.00,40.00,7,3,8,0.00
2013-1-2,31.0,30.2,29.0,-99.9,-99.9,-99.9,0,0,100,0.00,40.00,13,9,16,0.00
2013-1-3,32.0,28.6,25.0,-99.9,-99.9,-99.9,0,0,100,0.00,40.00,6,3,8,0.00
2013-1-4,33.0,28.6,25.0,-99.9,-99.9,-99.9,0,0,100,0.00,40.00,12,5,15,0.00
2013-1-5,33.0,30.9,30.0,-99.9,-99.9,-99.9,0,0,100,0.00,40.00,9,6,13,0.00
2013-1-6,32.0,30.3,29.0,-99.9,-99.9,-99.9,0,0,100,0.00,40.00,9,5,13,0.00
2013-1-7,50.0,37.5,30.0,-99.9,-99.9,-99.9,0,0,100,0.00,40.00,20,7,37,0.00
2013-1-8,53.0,46.8,40.0,-99.9,-99.9,-99.9,0,0,100,0.00,40.00,20,8,32,0.00
2013-1-9,55.0,48.6,41.0,-99.9,-99.9,-99.9,0,0,100,0.00,40.00,21,9,33,0.00
2013-1-10,43.0,37.3,33.0,-99.9,-99.9,-99.9,0,0,100,0.00,40.00,12,5,17,0.00
2013-1-11,39.0,32.3,27.0,-99.9,-99.9,-99.9,0,0,100,0.00,40.00,17,9,24,0.00
2013-1-12,32.0,25.1,18.0,-99.9,-99.9,-99.9,0,0,100,0.00,40.00,8,4,12,0.00
2013-1-13,34.0,24.3,19.0,-99.9,-99.9,-99.9,0,0,100,0.00,40.00,5,3,8,0.00
2013-1-14,35.0,28.4,24.0,-99.9,-99.9,-99.9,0,0,100,0.00,40.00,9,4,14,0.00
2013-1-15,36.0,27.3,21.0,-99.9,-99.9,-99.9,0,0,100,0.00,40.00,5,3,7,0.00
2013-1-16,31.0,26.8,20.0,-99.9,-99.9,-99.9,0,0,100,0.00,40.00,3,2,6,0.00
2013-1-17,31.0,30.2,30.0,-99.9,-99.9,-99.9,0,0,100,0.00,40.00,5,3,8,0.00
2013-1-18,31.0,29.4,28.0,-99.9,-99.9,-99.9,0,0,100,0.00,40.00,8,4,12,0.00
2013-1-19,30.0,29.4,28.0,-99.9,-99.9,-99.9,0,0,100,0.00,40.00,8,3,12,0.00
2013-1-20,31.0,29.7,29.0,-99.9,-99.9,-99.9,0,0,100,0.00,40.00,5,3,7,0.00
2013-1-21,29.0,27.5,26.0,-99.9,-99.9,-99.9,0,0,100,0.00,40.00,6,4,10,0.00
2013-1-22,26.0,25.6,25.0,-99.9,-99.9,-99.9,0,0,100,0.00,40.00,8,6,12,0.00
2013-1-23,30.0,27.4,26.0,-99.9,-99.9,-99.9,0,0,100,0.00,40.00,9,5,13,0.00
2013-1-24,34.0,29.3,23.0,-99.9,-99.9,-99.9,0,0,100,0.00,40.00,12,6,18,0.00
2013-1-25,34.0,31.9,29.0,-99.9,-99.9,-99.9,0,0,100,0.00,40.00,5,3,10,0.00
2013-1-26,36.0,33.8,32.0,-99.9,-99.9,-99.9,0,0,100,0.00,40.00,6,3,9,0.00
2013-1-27,43.0,37.0,33.0,-99.9,-99.9,-99.9,0,0,100,0.00,40.00,13,4,24,0.00
2013-1-28,44.0,37.6,28.0,-99.9,-99.9,-99.9,0,0,100,0.00,40.00,14,6,24,0.00
2013-1-29,46.0,43.2,42.0,-99.9,-99.9,-99.9,0,0,100,0.00,40.00,12,6,16,0.00
2013-1-31,56.0,50.9,44.0,-99.9,-99.9,-99.9,0,0,100,0.00,40.00,9,6,14,0.00
2013-2-1,56.0,44.7,34.0,-99.9,-99.9,-99.9,0,0,100,0.00,40.00,5,3,8,0.00
2013-2-2,48.0,36.9,28.0,-99.9,-99.9,-99.9,0,0,100,0.00,40.00,5,3,10,0.00
2013-2-3,38.0,33.3,29.0,-99.9,-99.9,-99.9,0,0,100,0.00,40.00,6,3,9,0.00
2013-2-4,47.0,38.5,34.0,-99.9,-99.9,-99.9,0,0,100,0.00,40.00,6,3,8,0.00
2013-2-5,56.0,43.4,32.0,-99.9,-99.9,-99.9,0,0,100,0.00,40.00,20,7,35,0.00
2013-2-6,54.0,47.6,41.0,-99.9,-99.9,-99.9,0,0,100,0.00,40.00,20,9,35,0.00
2013-2-7,49.0,42.2,33.0,-99.9,-99.9,-99.9,0,0,100,0.00,40.00,9,5,15,0.00
2013-2-8,49.0,38.2,30.0,-99.9,-99.9,-99.9,0,0,100,0.00,40.00,5,3,12,0.00
2013-2-9,49.0,36.9,28.0,-99.9,-99.9,-99.9,0,0,100,0.00,40.00,9,4,14,0.00
2013-2-10,50.0,37.5,27.0,-99.9,-99.9,-99.9,0,0,100,0.00,40.00,5,3,8,0.00
2013-2-11,46.0,35.4,25.0,-99.9,-99.9,-99.9,0,0,100,0.00,40.00,7,3,12,0.00
2013-2-12,55.0,41.5,27.0,-99.9,-99.9,-99.9,0,0,100,0.00,40.00,15,5,27,0.00
2013-2-13,55.0,49.8,42.0,-99.9,-99.9,-99.9,0,0,100,0.00,40.00,20,10,32,0.00
2013-2-14,54.0,42.8,33.0,-99.9,-99.9,-99.9,0,0,100,0.00,40.00,8,3,14,0.00
2013-2-15,57.0,40.2,28.0,-99.9,-99.9,-99.9,0,0,100,0.00,40.00,6,3,9,0.00
2013-2-16,58.0,42.5,30.0,-99.9,-99.9,-99.9,0,0,100,0.00,40.00,16,6,28,0.00
2013-2-17,52.0,43.0,37.0,-99.9,-99.9,-99.9,0,0,100,0.00,40.00,14,8,22,0.00
2013-2-18,45.0,37.9,28.0,-99.9,-99.9,-99.9,0,0,100,0.00,40.00,7,3,12,0.00
2013-2-19,49.0,39.5,31.0,-99.9,-99.9,-99.9,0,0,100,0.00,40.00,8,4,15,0.00
2013-2-20,50.0,40.2,28.0,-99.9,-99.9,-99.9,0,0,100,0.00,40.00,8,4,14,0.00
2013-2-21,50.0,40.7,29.0,-99.9,-99.9,-99.9,0,0,100,0.00,40.00,16,8,32,0.00
2013-2-22,51.0,45.9,42.0,-99.9,-99.9,-99.9,0,0,100,0.00,40.00,23,14,40,0.00
2013-2-23,54.0,44.9,38.0,-99.9,-99.9,-99.9,0,0,100,0.00,40.00,20,10,29,0.00
2013-2-24,48.0,41.3,35.0,-99.9,-99.9,-99.9,0,0,100,0.00,40.00,13,7,22,0.00
2013-2-25,54.0,44.0,37.0,-99.9,-99.9,-99.9,0,0,100,0.00,40.00,25,13,43,0.00
2013-2-26,51.0,41.4,35.0,-99.9,-99.9,-99.9,0,0,100,0.00,40.00,10,6,18,0.00
2013-2-27,57.0,45.2,35.0,-99.9,-99.9,-99.9,0,0,100,0.00,40.00,13,6,20,0.00
2013-2-28,51.0,47.4,44.0,-99.9,-99.9,-99.9,0,0,100,0.00,40.00,8,3,16,0.00
2013-3-1,64.0,57.6,48.0,-99.9,-99.9,-99.9,0,0,100,0.00,40.00,20,12,35,0.00
2013-3-2,59.0,53.2,45.0,-99.9,-99.9,-99.9,0,0,100,0.00,40.00,16,6,28,0.00
2013-3-3,54.0,46.3,38.0,-99.9,-99.9,-99.9,0,0,100,0.00,40.00,21,12,30,0.00
2013-3-4,53.0,39.4,27.0,-99.9,-99.9,-99.9,0,0,100,0.00,40.00,7,4,16,0.00
2013-3-5,47.0,39.1,31.0,-99.9,-99.9,-99.9,0,0,100,0.00,40.00,18,9,27,0.00
2013-3-6,46.0,41.2,37.0,-99.9,-99.9,-99.9,0,0,100,0.00,40.00,20,12,35,0.00
2013-3-7,58.0,47.4,34.0,-99.9,-99.9,-99.9,0,0,100,0.00,40.00,17,9,30,0.00
2013-3-8,55.0,41.7,30.0,-99.9,-99.9,-99.9,0,0,100,0.00,40.00,8,4,13,0.00
2013-3-9,59.0,44.6,31.0,-99.9,-99.9,-99.9,0,0,100,0.00,40.00,7,3,12,0.00
2013-3-10,56.0,45.2,33.0,-99.9,-99.9,-99.9,0,0,100,0.00,40.00,9,3,15,0.00
2013-3-11,58.0,48.1,41.0,-99.9,-99.9,-99.9,0,0,100,0.00,40.00,7,4,12,0.00
2013-3-12,64.0,56.7,51.0,-99.9,-99.9,-99.9,0,0,100,0.00,40.00,16,10,28,0.00
2013-3-13,68.0,58.3,52.0,-99.9,-99.9,-99.9,0,0,100,0.00,40.00,14,8,24,0.00
2013-3-14,66.0,57.6,48.0,-99.9,-99.9,-99.9,0,0,100,0.00,40.00,12,4,21,0.00
2013-3-15,66.0,57.6,50.0,-99.9,-99.9,-99.9,0,0,100,0.00,40.00,12,6,22,0.00
2013-3-16,59.0,52.6,48.0,-99.9,-99.9,-99.9,0,0,100,0.00,40.00,20,10,35,0.00
2013-3-17,54.0,45.7,39.0,-99.9,-99.9,-99.9,0,0,100,0.00,40.00,22,15,35,0.00
2013-3-18,57.0,44.8,37.0,-99.9,-99.9,-99.9,0,0,100,0.00,40.00,20,12,38,0.00
2013-3-19,52.0,42.1,27.0,-99.9,-99.9,-99.9,0,0,100,0.00,40.00,13,7,20,0.00
2013-3-20,60.0,48.0,40.0,-99.9,-99.9,-99.9,0,0,100,0.00,40.00,30,13,46,0.00
2013-3-21,52.0,44.0,38.0,-99.9,-99.9,-99.9,0,0,100,0.00,40.00,20,13,35,0.00
2013-3-22,49.0,42.1,35.0,-99.9,-99.9,-99.9,0,0,100,0.00,40.00,14,8,23,0.00
2013-3-23,51.0,38.1,29.0,-99.9,-99.9,-99.9,0,0,100,0.00,40.00,5,3,9,0.00
2013-3-24,54.0,38.8,24.0,-99.9,-99.9,-99.9,0,0,100,0.00,40.00,6,3,10,0.00
2013-3-25,57.0,43.4,33.0,-99.9,-99.9,-99.9,0,0,100,0.00,40.00,10,6,17,0.00
2013-3-26,62.0,52.7,44.0,-99.9,-99.9,-99.9,0,0,100,0.00,40.00,7,4,12,0.00
2013-3-27,64.0,55.9,48.0,-99.9,-99.9,-99.9,0,0,100,0.00,40.00,10,5,13,0.00
2013-3-28,66.0,56.1,45.0,-99.9,-99.9,-99.9,0,0,100,0.00,40.00,6,3,8,0.00
2013-3-29,69.0,57.5,50.0,-99.9,-99.9,-99.9,0,0,100,0.00,40.00,6,3,13,0.00
2013-3-30,72.0,55.5,40.0,-99.9,-99.9,-99.9,0,0,100,0.00,40.00,6,3,12,0.00
2013-3-31,74.0,56.9,39.0,-99.9,-99.9,-99.9,0,0,100,0.00,40.00,10,5,17,0.00
2013-4-1,77.0,60.6,44.0,-99.9,-99.9,-99.9,0,0,100,0.00,40.00,12,5,20,0.00
2013-4-2,72.0,64.5,53.0,-99.9,-99.9,-99.9,0,0,100,0.00,40.00,13,8,20,0.00
2013-4-3,71.0,60.8,50.0,-99.9,-99.9,-99.9,0,0,100,0.00,40.00,6,4,13,0.00
2013-4-4,60.0,55.8,50.0,-99.9,-99.9,-99.9,0,0,100,0.00,40.00,14,5,22,0.00
2013-4-5,67.0,58.2,53.0,-99.9,-99.9,-99.9,0,0,100,0.00,40.00,21,13,40,0.00
2013-4-6,60.0,55.9,52.0,-99.9,-99.9,-99.9,0,0,100,0.00,40.00,20,11,35,0.00
2013-4-7,61.0,52.0,47.0,-99.9,-99.9,-99.9,0,0,100,0.00,40.00,24,11,41,0.00
2013-4-8,58.0,50.0,43.0,-99.9,-99.9,-99.9,0,0,100,0.00,40.00,8,4,13,0.00
2013-4-9,64.0,52.1,37.0,-99.9,-99.9,-99.9,0,0,100,0.00,40.00,8,4,15,0.00
2013-4-10,69.0,58.5,53.0,-99.9,-99.9,-99.9,0,0,100,0.00,40.00,28,13,47,0.00
2013-4-11,62.0,52.9,45.0,-99.9,-99.9,-99.9,0,0,100,0.00,40.00,12,8,21,0.00
2013-4-12,61.0,49.3,38.0,-99.9,-99.9,-99.9,0,0,100,0.00,40.00,18,6,30,0.00
2013-4-13,58.0,51.1,43.0,-99.9,-99.9,-99.9,0,0,100,0.00,40.00,25,17,41,0.00
2013-12-11,31.0,26.7,22.0,-99.9,-99.9,-99.9,0,0,100,0.00,40.00,3,2,6,0.00
2013-12-12,31.0,25.4,19.0,-99.9,-99.9,-99.9,0,0,100,0.00,40.00,3,2,6,0.00
2013-12-13,38.0,28.0,22.0,-99.9,-99.9,-99.9,0,0,100,0.00,40.00,3,2,7,0.00
2013-12-14,36.0,28.7,23.0,-99.9,-99.9,-99.9,0,0,100,0.00,40.00,10,3,20,0.00
2013-12-15,58.0,35.8,25.0,-99.9,-99.9,-99.9,0,0,100,0.00,40.00,12,4,20,0.00
2013-12-16,53.0,42.3,30.0,-99.9,-99.9,-99.9,0,0,100,0.00,40.00,5,3,14,0.00
2013-12-17,38.0,30.4,24.0,-99.9,-99.9,-99.9,0,0,100,0.00,40.00,9,3,12,0.00
2013-12-18,45.0,33.7,24.0,-99.9,-99.9,-99.9,0,0,100,0.00,40.00,15,4,21,0.00
2013-12-19,38.0,33.5,28.0,-99.9,-99.9,-99.9,0,0,100,0.00,40.00,15,5,21,0.00
2013-12-20,40.0,30.7,26.0,-99.9,-99.9,-99.9,0,0,100,0.00,40.00,12,6,24,0.00
2013-12-21,36.0,29.6,26.0,-99.9,-99.9,-99.9,0,0,100,0.00,40.00,3,2,7,0.00
2013-12-22,34.0,31.0,29.0,-99.9,-99.9,-99.9,0,0,100,0.00,40.00,5,3,8,0.00
2013-12-23,59.0,43.7,32.0,-99.9,-99.9,-99.9,0,0,100,0.00,40.00,23,8,43,0.00
2013-12-24,48.0,39.6,28.0,-99.9,-99.9,-99.9,0,0,100,0.00,40.00,9,5,15,0.00
2013-12-25,36.0,28.4,21.0,-99.9,-99.9,-99.9,0,0,100,0.00,40.00,5,2,8,0.00
2013-12-26,33.0,27.0,22.0,-99.9,-99.9,-99.9,0,0,100,0.00,40.00,5,3,7,0.00
2013-12-27,30.0,26.6,24.0,-99.9,-99.9,-99.9,0,0,100,0.00,40.00,8,3,12,0.00
2013-12-28,27.0,25.0,24.0,-99.9,-99.9,-99.9,0,0,100,0.00,40.00,5,2,8,0.00
2013-12-29,28.0,26.9,25.0,-99.9,-99.9,-99.9,0,0,100,0.00,40.00,6,3,7,0.00
2013-12-30,33.0,30.5,28.0,-99.9,-99.9,-99.9,0,0,100,0.00,40.00,10,3,13,0.00
2013-12-31,44.0,34.0,30.0,-99.9,-99.9,-99.9,0,0,100,0.00,40.00,7,4,10,0.00
2014-1-1,31.0,28.3,25.0,-99.9,-99.9,-99.9,0,0,100,0.00,40.00,5,2,7,0.00
2014-1-2,38.0,32.7,31.0,-99.9,-99.9,-99.9,0,0,100,0.00,40.00,7,3,12,0.00